Time;durP1;ratioP1;P1;durP2;ratioP2;P2;SDS_P1;SDS_P2;PMS_P1;PMS_P2;Temp;Humidity;BMP_temperature;BMP_pressure;BME280_temperature;BME280_humidity;BME280_pressure;Samples;Min_cycle;Max_cycle;Signal;HPM_P1;HPM_P2
2021/09/21 00:00:30;;;;;;;19.75;11.98;;;;;;;9.72;69.76;101021.31;4976803;28;101718;-75
2021/09/21 00:02:56;;;;;;;15.40;12.57;;;;;;;9.81;69.14;101041.25;4959674;28;101808;-75
2021/09/21 00:05:21;;;;;;;13.27;11.27;;;;;;;9.73;68.99;101025.66;4978608;28;97310;-75
2021/09/21 00:07:47;;;;;;;14.10;12.45;;;;;;;9.70;68.90;101030.94;4973874;28;97078;-74
2021/09/21 00:10:13;;;;;;;15.30;12.30;;;;;;;9.71;68.98;101035.28;4997341;28;101333;-75
2021/09/21 00:12:39;;;;;;;13.57;11.90;;;;;;;9.58;69.03;101023.31;4972504;28;101351;-77
2021/09/21 00:15:07;;;;;;;14.38;11.98;;;;;;;9.57;69.47;101021.56;4967277;28;97344;-75
2021/09/21 00:17:33;;;;;;;17.33;12.40;;;;;;;9.58;69.71;101024.19;4972319;28;97303;-75
2021/09/21 00:19:58;;;;;;;15.25;12.65;;;;;;;9.60;68.99;101027.66;4971017;28;101802;-75
2021/09/21 00:22:24;;;;;;;14.80;12.15;;;;;;;9.55;69.23;101028.63;4988084;28;102961;-75
2021/09/21 00:24:49;;;;;;;13.20;11.18;;;;;;;9.57;68.99;101032.06;4974183;28;97479;-76
2021/09/21 00:27:15;;;;;;;14.85;11.57;;;;;;;9.52;69.15;101024.31;4989197;28;97540;-75
2021/09/21 00:29:41;;;;;;;14.10;12.60;;;;;;;9.47;69.17;101034.00;4962409;28;103134;-75
2021/09/21 00:32:13;;;;;;;16.98;12.52;;;;;;;9.55;68.91;101039.13;4988278;28;97672;-74
2021/09/21 00:34:42;;;;;;;15.25;12.23;;;;;;;9.47;68.78;101024.38;4957480;28;98098;-77
2021/09/21 00:37:10;;;;;;;14.98;12.27;;;;;;;9.50;68.90;101032.19;4961125;28;97351;-74
2021/09/21 00:39:35;;;;;;;17.23;12.35;;;;;;;9.45;68.57;101041.00;4984893;28;101272;-75
2021/09/21 00:42:01;;;;;;;13.13;11.68;;;;;;;9.43;68.65;101040.19;4987481;28;98801;-75
2021/09/21 00:44:27;;;;;;;13.90;12.25;;;;;;;9.37;68.31;101035.06;4983312;28;97237;-74
2021/09/21 00:46:52;;;;;;;16.02;12.10;;;;;;;9.47;68.64;101044.47;4976835;28;97280;-75
2021/09/21 00:49:18;;;;;;;14.23;11.57;;;;;;;9.43;68.82;101045.44;4982274;28;101770;-75
2021/09/21 00:51:44;;;;;;;15.90;12.52;;;;;;;9.39;68.93;101044.59;4988902;28;101555;-75
2021/09/21 00:54:09;;;;;;;15.73;12.27;;;;;;;9.33;68.78;101033.38;4994702;28;97368;-75
2021/09/21 00:56:36;;;;;;;13.20;11.43;;;;;;;9.32;69.11;101034.28;4995180;28;97421;-75
2021/09/21 00:59:02;;;;;;;16.73;12.85;;;;;;;9.26;68.99;101030.00;4956957;28;101501;-75
2021/09/21 01:01:28;;;;;;;16.60;13.27;;;;;;;9.27;69.54;101039.59;4974705;28;97891;-74
2021/09/21 01:03:54;;;;;;;14.98;12.88;;;;;;;9.21;70.11;101042.31;4978701;28;97241;-76
2021/09/21 01:06:19;;;;;;;18.83;13.18;;;;;;;9.21;69.71;101040.56;4978890;28;97484;-75
2021/09/21 01:08:45;;;;;;;14.18;11.57;;;;;;;9.15;69.65;101027.56;4990400;28;97967;-74
2021/09/21 01:11:17;;;;;;;17.67;13.10;;;;;;;9.20;69.85;101044.06;4976917;28;101009;-76
2021/09/21 01:13:43;;;;;;;15.98;13.10;;;;;;;9.25;70.08;101039.63;4990331;28;97108;-76
2021/09/21 01:16:12;;;;;;;15.32;12.70;;;;;;;9.16;69.76;101031.94;4959031;28;97375;-75
2021/09/21 01:18:38;;;;;;;14.45;12.15;;;;;;;9.18;70.33;101037.97;4973728;28;101458;-77
2021/09/21 01:21:11;;;;;;;15.27;13.10;;;;;;;9.24;70.20;101040.50;4979211;28;101243;-75
2021/09/21 01:24:03;;;;;;;19.63;13.52;;;;;;;9.21;69.63;101042.31;4985443;28;96801;-77
2021/09/21 01:26:28;;;;;;;14.18;11.88;;;;;;;9.16;69.69;101038.91;4954417;28;97198;-75
2021/09/21 01:28:54;;;;;;;14.27;12.23;;;;;;;9.16;69.71;101041.50;4978247;28;97709;-75
2021/09/21 01:31:20;;;;;;;15.07;12.45;;;;;;;9.11;70.25;101039.00;4976466;28;100858;-75
2021/09/21 01:33:47;;;;;;;17.55;13.55;;;;;;;9.09;70.09;101034.66;4974633;28;97738;-75
2021/09/21 01:36:17;;;;;;;15.43;13.93;;;;;;;9.07;70.36;101034.69;4960581;28;97447;-75
2021/09/21 01:38:43;;;;;;;15.77;12.60;;;;;;;8.98;70.21;101026.97;4957394;28;101024;-74
2021/09/21 01:41:08;;;;;;;16.45;12.32;;;;;;;9.02;70.16;101041.78;4994940;28;101489;-74
2021/09/21 01:43:34;;;;;;;14.45;12.68;;;;;;;8.97;70.63;101044.44;4974498;28;97154;-74
2021/09/21 01:45:59;;;;;;;18.98;14.02;;;;;;;8.95;70.46;101047.97;4989611;28;97409;-75
2021/09/21 01:48:25;;;;;;;17.55;13.63;;;;;;;8.96;70.79;101047.97;4990067;28;100979;-75
2021/09/21 01:58:20;;;;;;;30.40;19.85;;;;;;;8.83;70.56;101044.66;4989919;28;98593;-76
2021/09/21 02:00:46;;;;;;;35.65;23.55;;;;;;;8.90;70.60;101055.03;4987873;28;100997;-74
2021/09/21 02:03:11;;;;;;;36.65;21.80;;;;;;;8.93;70.33;101058.50;4983031;28;97195;-75
2021/09/21 02:05:38;;;;;;;37.80;23.15;;;;;;;8.90;70.16;101053.31;4972607;28;97448;-78
2021/09/21 02:08:04;;;;;;;40.92;23.55;;;;;;;8.91;70.53;101056.78;4987406;28;100309;-76
2021/09/21 02:10:29;;;;;;;45.58;24.33;;;;;;;8.86;70.48;101042.88;4977672;28;97871;-75
2021/09/21 02:12:54;;;;;;;37.97;22.80;;;;;;;8.83;71.26;101042.03;4971834;28;97213;-75
2021/09/21 02:15:21;;;;;;;42.45;23.58;;;;;;;8.89;70.67;101058.53;4982820;28;97323;-76
2021/09/21 02:17:47;;;;;;;43.45;24.38;;;;;;;8.91;70.62;101057.63;4966791;28;101654;-75
2021/09/21 02:20:14;;;;;;;37.13;23.90;;;;;;;8.90;70.79;101047.19;4970093;28;98333;-74
2021/09/21 02:22:40;;;;;;;34.45;21.48;;;;;;;8.94;70.44;101046.25;4955685;28;96844;-76
2021/09/21 02:25:06;;;;;;;29.95;18.45;;;;;;;8.96;70.39;101053.19;4969295;28;97104;-76
2021/09/21 02:27:32;;;;;;;25.75;15.98;;;;;;;8.95;70.43;101051.44;4970578;28;97503;-75
2021/09/21 02:29:57;;;;;;;20.35;14.82;;;;;;;8.92;70.02;101054.13;4972446;28;101659;-75
2021/09/21 02:32:23;;;;;;;21.08;15.02;;;;;;;8.89;69.92;101048.06;4973804;28;97184;-74
2021/09/21 02:34:48;;;;;;;18.70;13.50;;;;;;;8.81;70.20;101048.19;4955650;28;97172;-75
2021/09/21 02:37:16;;;;;;;21.42;13.20;;;;;;;8.84;70.57;101056.88;4968603;28;101549;-75
2021/09/21 02:39:41;;;;;;;17.38;13.90;;;;;;;8.77;70.21;101062.22;4967573;28;98192;-78
2021/09/21 02:42:07;;;;;;;15.60;13.18;;;;;;;8.76;70.23;101063.13;4965348;28;96761;-76
2021/09/21 02:44:34;;;;;;;14.95;12.60;;;;;;;8.80;70.36;101051.69;4988394;28;97559;-76
2021/09/21 02:47:01;;;;;;;15.18;12.50;;;;;;;8.73;70.60;101052.69;4980708;28;98072;-75
2021/09/21 02:49:26;;;;;;;15.70;12.60;;;;;;;8.73;70.74;101055.31;4971893;28;99647;-75
2021/09/21 02:51:52;;;;;;;19.30;13.70;;;;;;;8.69;70.76;101054.47;4957994;28;98190;-76
2021/09/21 02:54:18;;;;;;;20.00;12.25;;;;;;;8.77;70.27;101041.28;4972849;28;96959;-77
2021/09/21 02:56:43;;;;;;;18.08;12.10;;;;;;;8.69;70.61;101044.00;4969320;28;101297;-75
2021/09/21 02:59:09;;;;;;;22.70;15.98;;;;;;;8.72;70.96;101030.00;4967826;28;101228;-76
2021/09/21 03:01:35;;;;;;;20.90;13.63;;;;;;;8.72;71.03;101038.72;4963947;28;96879;-77
2021/09/21 03:04:05;;;;;;;17.27;13.18;;;;;;;8.66;71.14;101027.47;4967446;28;97222;-76
2021/09/21 03:06:38;;;;;;;16.92;13.52;;;;;;;8.67;71.46;101045.78;4969340;28;98415;-76
2021/09/21 03:11:42;;;;;;;15.65;13.10;;;;;;;8.64;71.44;101042.31;4972991;28;97163;-75
2021/09/21 03:19:25;;;;;;;17.48;14.50;;;;;;;8.59;71.28;101051.13;4974741;28;101463;-75
2021/09/21 03:21:52;;;;;;;21.73;13.60;;;;;;;8.57;71.61;101050.28;4970387;28;98101;-75
2021/09/21 03:24:17;;;;;;;22.58;14.35;;;;;;;8.59;71.59;101048.50;4955212;28;97201;-75
2021/09/21 03:26:43;;;;;;;20.08;13.35;;;;;;;8.63;70.71;101057.16;4986892;28;101149;-77
2021/09/21 03:29:08;;;;;;;17.48;13.23;;;;;;;8.58;71.13;101051.13;4979478;28;97638;-75
2021/09/21 03:31:34;;;;;;;18.65;14.23;;;;;;;8.59;70.79;101055.50;4982393;28;97627;-75
2021/09/21 03:33:59;;;;;;;17.17;14.65;;;;;;;8.58;70.52;101058.97;4989073;28;97277;-75
2021/09/21 03:36:25;;;;;;;17.20;13.68;;;;;;;8.59;70.79;101060.72;4998360;28;97409;-75
2021/09/21 03:38:51;;;;;;;18.98;15.38;;;;;;;8.56;70.81;101053.78;4970059;28;97897;-75
2021/09/21 03:41:16;;;;;;;19.42;14.27;;;;;;;8.55;70.80;101066.88;4970806;28;97000;-76
2021/09/21 03:43:42;;;;;;;17.42;13.45;;;;;;;8.51;71.50;101067.81;4952614;28;97081;-76
2021/09/21 03:46:08;;;;;;;19.98;15.23;;;;;;;8.47;71.42;101072.25;4968095;28;101394;-75
2021/09/21 03:48:33;;;;;;;20.08;15.27;;;;;;;8.44;71.50;101063.56;4959332;28;101142;-75
2021/09/21 03:50:59;;;;;;;18.23;14.75;;;;;;;8.42;71.06;101067.94;4984043;28;97250;-74
2021/09/21 03:53:25;;;;;;;19.33;14.73;;;;;;;8.45;71.39;101081.00;4961930;28;97197;-75
2021/09/21 03:55:50;;;;;;;23.35;15.65;;;;;;;8.43;71.69;101082.75;4969602;28;101499;-75
2021/09/21 03:58:16;;;;;;;22.52;16.02;;;;;;;8.38;72.09;101077.56;4978269;28;97729;-75
2021/09/21 04:00:41;;;;;;;21.02;15.73;;;;;;;8.42;71.96;101081.88;4980066;28;96950;-77
2021/09/21 04:03:07;;;;;;;23.83;16.50;;;;;;;8.50;71.86;101095.75;4971087;28;97058;-75
2021/09/21 04:05:32;;;;;;;18.73;15.43;;;;;;;8.52;72.19;101088.75;4974853;28;101100;-75
2021/09/21 04:07:58;;;;;;;19.98;16.13;;;;;;;8.51;72.15;101087.00;4961316;28;101559;-74
2021/09/21 04:10:23;;;;;;;20.75;15.80;;;;;;;8.56;72.65;101092.19;4984875;28;97164;-74
2021/09/21 04:12:49;;;;;;;19.92;15.05;;;;;;;8.61;72.39;101095.59;4969726;28;97173;-76
2021/09/21 04:15:15;;;;;;;18.73;14.32;;;;;;;8.63;71.97;101099.03;4983906;28;101068;-75
2021/09/21 04:17:40;;;;;;;17.10;14.32;;;;;;;8.69;71.99;101104.19;4977594;28;100996;-77
2021/09/21 04:20:06;;;;;;;22.35;14.63;;;;;;;8.65;72.57;101099.03;4970904;28;96867;-74
2021/09/21 04:22:32;;;;;;;20.30;14.80;;;;;;;8.68;72.53;101094.63;4963034;28;97872;-75
2021/09/21 04:24:57;;;;;;;17.98;14.18;;;;;;;8.72;72.19;101093.69;4978981;28;97681;-74
2021/09/21 04:27:23;;;;;;;22.65;14.98;;;;;;;8.66;72.40;101098.16;4951665;28;101494;-75
2021/09/21 04:29:53;;;;;;;20.98;15.25;;;;;;;8.74;72.28;101096.28;4984286;28;97118;-76
2021/09/21 04:32:19;;;;;;;23.05;16.05;;;;;;;8.67;72.74;101092.91;4969455;28;97009;-75
2021/09/21 04:34:49;;;;;;;17.50;14.52;;;;;;;8.67;72.46;101085.06;4977270;28;98555;-77
2021/09/21 04:37:14;;;;;;;17.95;14.43;;;;;;;8.72;72.45;101088.44;4984360;28;97373;-75
2021/09/21 04:39:41;;;;;;;18.40;13.90;;;;;;;8.75;72.62;101098.88;4975374;28;97374;-75
2021/09/21 04:42:08;;;;;;;24.15;14.80;;;;;;;8.73;72.74;101092.81;4970955;28;96796;-75
2021/09/21 04:44:35;;;;;;;19.75;14.52;;;;;;;8.77;72.44;101099.72;4976093;28;101587;-75
2021/09/21 04:47:01;;;;;;;18.20;14.45;;;;;;;8.68;72.91;101092.00;4965043;28;98501;-75
2021/09/21 04:49:27;;;;;;;20.10;14.63;;;;;;;8.58;72.76;101075.56;4958361;28;96819;-74
2021/09/21 04:51:52;;;;;;;20.85;15.27;;;;;;;8.73;72.63;101105.91;4994970;28;96949;-76
2021/09/21 04:54:18;;;;;;;20.50;15.77;;;;;;;8.78;72.96;101103.19;4988103;28;97505;-75
2021/09/21 04:56:43;;;;;;;23.60;15.95;;;;;;;8.80;72.87;101107.53;4972033;28;101455;-77
2021/09/21 04:59:09;;;;;;;22.88;16.52;;;;;;;8.84;73.32;101100.50;4960809;28;97008;-74
2021/09/21 05:01:36;;;;;;;20.15;15.93;;;;;;;8.90;73.13;101107.41;4970284;28;96965;-74
2021/09/21 05:04:02;;;;;;;26.48;15.52;;;;;;;8.92;73.40;101101.25;4969147;28;101551;-76
2021/09/21 05:06:27;;;;;;;25.40;14.85;;;;;;;8.97;72.61;101101.19;4954155;28;101659;-75
2021/09/21 05:08:53;;;;;;;20.50;15.07;;;;;;;9.05;72.50;101115.06;4982062;28;97527;-74
2021/09/21 05:11:18;;;;;;;24.10;15.93;;;;;;;9.10;72.96;101104.47;4985290;28;97428;-74
2021/09/21 05:13:44;;;;;;;22.85;15.20;;;;;;;9.20;73.11;101127.03;4981692;28;101635;-76
2021/09/21 05:16:09;;;;;;;18.50;14.43;;;;;;;9.23;73.20;101111.28;5000133;28;98407;-75
2021/09/21 05:18:35;;;;;;;21.88;15.80;;;;;;;9.27;72.98;101105.94;4979657;28;98264;-77
2021/09/21 05:21:00;;;;;;;23.90;16.50;;;;;;;9.33;73.34;101107.59;4986887;28;96934;-76
2021/09/21 05:23:26;;;;;;;26.38;18.27;;;;;;;9.43;73.03;101098.72;4979255;28;97991;-77
2021/09/21 05:25:51;;;;;;;25.52;17.60;;;;;;;9.65;72.84;101099.19;4964872;28;101289;-76
2021/09/21 05:28:17;;;;;;;23.60;16.92;;;;;;;9.59;72.94;101099.28;4967403;28;97514;-76
2021/09/21 05:30:42;;;;;;;23.05;16.80;;;;;;;9.64;73.35;101107.94;4981184;28;97162;-77
2021/09/21 05:33:08;;;;;;;22.20;16.92;;;;;;;9.78;73.07;101110.34;4960800;28;101644;-73
2021/09/21 05:35:33;;;;;;;26.80;16.67;;;;;;;9.82;73.08;101104.13;4966982;28;100366;-75
2021/09/21 05:37:59;;;;;;;20.02;15.63;;;;;;;9.87;73.72;101125.91;4981771;28;98656;-74
2021/09/21 05:40:26;;;;;;;25.08;15.20;;;;;;;9.86;73.60;101123.28;4968644;28;98256;-75
2021/09/21 05:42:52;;;;;;;24.48;17.30;;;;;;;9.83;73.84;101123.34;4986104;28;98263;-74
2021/09/21 05:45:17;;;;;;;27.75;16.40;;;;;;;9.82;74.24;101119.00;4989925;28;97510;-74
2021/09/21 05:47:43;;;;;;;27.10;16.45;;;;;;;9.92;74.23;101118.81;4977598;28;98294;-75
2021/09/21 05:50:10;;;;;;;27.77;16.58;;;;;;;10.11;73.57;101121.94;4951212;28;97505;-74
2021/09/21 05:52:36;;;;;;;24.75;15.18;;;;;;;10.25;73.66;101123.44;4992779;28;97658;-74
2021/09/21 05:55:03;;;;;;;17.40;14.50;;;;;;;10.47;72.92;101127.41;4969395;28;97324;-74
2021/09/21 05:57:29;;;;;;;18.40;14.18;;;;;;;10.64;72.44;101114.75;4985754;28;97510;-74
2021/09/21 05:59:54;;;;;;;21.73;15.05;;;;;;;10.73;72.72;101121.56;4971415;28;97229;-74
2021/09/21 06:02:23;;;;;;;17.58;13.90;;;;;;;10.91;72.17;101122.94;4978029;28;101225;-74
2021/09/21 06:04:49;;;;;;;19.27;13.52;;;;;;;11.10;72.04;101133.88;4992224;28;97932;-75
2021/09/21 06:07:15;;;;;;;17.65;12.77;;;;;;;11.25;71.44;101138.75;4992886;28;97322;-75
2021/09/21 06:09:40;;;;;;;18.30;13.70;;;;;;;11.57;70.97;101145.00;4991828;28;97468;-76
2021/09/21 06:12:06;;;;;;;18.20;11.93;;;;;;;11.57;70.85;101152.88;4974558;28;101263;-76
2021/09/21 06:14:31;;;;;;;20.70;13.43;;;;;;;11.58;71.16;101146.75;4982883;28;100985;-76
2021/09/21 06:16:57;;;;;;;14.73;12.15;;;;;;;11.47;71.36;101146.16;4986754;28;96793;-76
2021/09/21 06:19:22;;;;;;;14.55;11.13;;;;;;;11.50;71.32;101140.81;4957692;28;96910;-77
2021/09/21 06:21:48;;;;;;;15.10;12.07;;;;;;;11.59;71.24;101145.84;4988975;28;98134;-73
2021/09/21 06:24:13;;;;;;;15.73;12.70;;;;;;;11.85;70.63;101144.31;4981797;28;98229;-73
2021/09/21 06:26:39;;;;;;;16.30;12.40;;;;;;;12.08;70.33;101149.00;4973132;28;98168;-73
2021/09/21 06:29:04;;;;;;;18.13;13.25;;;;;;;12.29;70.01;101144.91;4983887;28;97382;-73
2021/09/21 06:31:32;;;;;;;18.20;12.85;;;;;;;12.50;69.50;101146.06;4973723;28;100829;-72
2021/09/21 06:33:57;;;;;;;14.23;12.43;;;;;;;12.60;69.03;101143.13;4975615;28;98413;-73
2021/09/21 06:36:25;;;;;;;18.08;12.10;;;;;;;12.66;69.41;101142.94;4979937;28;97106;-72
2021/09/21 06:38:51;;;;;;;16.98;12.60;;;;;;;12.67;68.99;101139.38;4966714;28;97150;-74
2021/09/21 06:41:16;;;;;;;15.40;12.63;;;;;;;12.59;69.79;101129.97;4970792;28;101527;-73
2021/09/21 06:43:42;;;;;;;18.35;12.73;;;;;;;12.62;69.57;101143.06;4970581;28;101306;-73
2021/09/21 06:46:08;;;;;;;16.17;12.85;;;;;;;12.62;70.13;101143.94;4954343;28;97291;-73
2021/09/21 06:48:38;;;;;;;16.52;12.05;;;;;;;12.67;69.75;101151.69;4971525;28;97252;-72
2021/09/21 06:51:04;;;;;;;16.13;11.32;;;;;;;12.65;69.77;101151.75;4984080;28;101614;-73
2021/09/21 06:53:32;;;;;;;17.80;11.60;;;;;;;12.60;70.37;101153.66;4998813;28;97402;-74
2021/09/21 06:55:57;;;;;;;18.88;12.45;;;;;;;12.61;69.93;101159.78;4992520;28;97440;-73
2021/09/21 06:58:23;;;;;;;16.48;12.68;;;;;;;12.61;70.95;101158.00;4967252;28;96760;-73
2021/09/21 07:00:49;;;;;;;20.40;12.25;;;;;;;12.75;70.08;101165.50;4935375;28;101118;-73
2021/09/21 07:03:15;;;;;;;16.85;12.65;;;;;;;12.88;70.44;101158.09;4948499;28;101401;-73
2021/09/21 07:05:40;;;;;;;14.95;12.38;;;;;;;13.14;69.91;101157.28;4964517;28;97279;-74
2021/09/21 07:08:06;;;;;;;15.82;12.48;;;;;;;13.59;68.33;101168.16;4963658;28;96893;-75
2021/09/21 07:10:32;;;;;;;17.65;11.88;;;;;;;14.23;66.74;101167.72;4944197;28;97826;-74
2021/09/21 07:12:57;;;;;;;14.82;11.93;;;;;;;14.40;65.83;101161.84;4966985;28;97416;-75
2021/09/21 07:15:23;;;;;;;16.85;11.93;;;;;;;14.13;66.84;101163.66;4967869;28;96695;-75
2021/09/21 07:17:55;;;;;;;15.45;11.95;;;;;;;14.08;67.18;101163.00;4943701;28;98156;-75
2021/09/21 07:20:22;;;;;;;17.10;12.02;;;;;;;13.97;66.98;101167.78;4981593;28;98331;-76
2021/09/21 07:22:48;;;;;;;14.43;12.00;;;;;;;13.79;67.63;101170.13;4928060;28;101202;-76
2021/09/21 07:25:13;;;;;;;14.10;11.63;;;;;;;13.70;68.18;101183.66;4950372;28;97808;-75
2021/09/21 07:27:40;;;;;;;12.95;11.63;;;;;;;13.61;68.64;101177.78;4939547;28;97670;-76
2021/09/21 07:30:07;;;;;;;15.05;12.43;;;;;;;13.39;68.33;101167.09;4958579;28;98569;-76
2021/09/21 07:32:33;;;;;;;13.48;11.85;;;;;;;13.33;68.80;101174.28;4948371;28;97803;-76
2021/09/21 07:35:00;;;;;;;14.45;13.00;;;;;;;13.33;68.58;101200.66;4982891;28;97021;-75
2021/09/21 07:37:26;;;;;;;12.45;11.32;;;;;;;13.18;69.51;101206.38;4953213;28;97709;-76
2021/09/21 07:39:52;;;;;;;12.80;11.63;;;;;;;13.10;70.05;101201.34;4950560;28;101624;-76
2021/09/21 07:42:18;;;;;;;12.98;11.68;;;;;;;13.03;70.21;101207.72;4952570;28;101420;-76
2021/09/21 07:44:45;;;;;;;14.35;12.80;;;;;;;13.03;70.25;101214.72;4968688;28;97387;-76
2021/09/21 07:47:11;;;;;;;14.98;11.65;;;;;;;13.00;70.48;101217.47;4952634;28;96895;-75
2021/09/21 08:01:37;;;;;;;11.90;10.52;;;;;;;13.32;69.77;101227.06;5024983;28;96614;-78
2021/09/21 08:04:04;;;;;;;13.15;10.80;;;;;;;13.10;70.54;101227.69;5003035;28;96966;-78
2021/09/21 08:06:29;;;;;;;12.10;9.95;;;;;;;12.98;71.03;101221.94;4998615;28;98399;-78
2021/09/21 08:08:55;;;;;;;11.88;10.00;;;;;;;12.88;71.71;101218.69;4984266;28;100884;-78
2021/09/21 08:11:20;;;;;;;13.95;11.93;;;;;;;12.81;71.89;101219.78;5003865;28;96892;-78
2021/09/21 08:13:46;;;;;;;18.05;12.32;;;;;;;12.81;71.90;101223.28;5015689;28;97172;-78
2021/09/21 08:16:12;;;;;;;15.38;13.50;;;;;;;12.79;72.50;101222.44;5012158;28;97496;-79
2021/09/21 08:18:37;;;;;;;16.23;12.40;;;;;;;12.79;72.36;101226.88;4999135;28;101814;-79
2021/09/21 08:21:03;;;;;;;15.07;11.98;;;;;;;12.86;72.15;101234.56;5022433;28;96782;-79
2021/09/21 08:23:28;;;;;;;14.77;12.48;;;;;;;12.96;72.34;101231.66;5005163;28;96942;-79
2021/09/21 08:25:54;;;;;;;16.55;11.60;;;;;;;13.01;72.21;101235.03;5004623;28;97431;-79
2021/09/21 08:28:20;;;;;;;13.15;11.77;;;;;;;13.01;72.08;101251.69;5003520;28;100928;-79
2021/09/21 08:30:45;;;;;;;16.13;11.57;;;;;;;12.95;72.49;101243.09;5001904;28;96645;-79
2021/09/21 08:33:11;;;;;;;16.33;12.68;;;;;;;12.90;73.09;101249.34;4986935;28;96847;-79
2021/09/21 08:35:36;;;;;;;13.27;11.77;;;;;;;12.91;72.80;101253.75;4999361;28;100382;-79
2021/09/21 08:38:02;;;;;;;13.70;12.10;;;;;;;12.91;72.54;101260.75;4983752;28;100523;-79
2021/09/21 08:40:29;;;;;;;14.45;11.57;;;;;;;12.86;72.83;101258.28;4984420;28;97223;-79
2021/09/21 08:42:54;;;;;;;12.45;11.25;;;;;;;12.83;73.07;101253.09;5007124;28;96726;-78
2021/09/21 08:45:20;;;;;;;14.15;10.50;;;;;;;12.83;72.58;101249.59;4998670;28;101162;-78
2021/09/21 08:47:46;;;;;;;14.55;11.43;;;;;;;12.75;72.77;101251.59;5016937;28;97982;-79
2021/09/21 08:50:14;;;;;;;14.43;11.98;;;;;;;12.78;72.28;101252.34;4991885;28;97189;-79
2021/09/21 08:52:41;;;;;;;12.90;11.60;;;;;;;12.68;73.24;101258.78;4985146;28;96945;-79
2021/09/21 08:55:12;;;;;;;12.27;10.98;;;;;;;12.64;73.75;101265.03;4982302;28;100809;-79
2021/09/21 08:57:39;;;;;;;13.48;12.10;;;;;;;12.69;73.69;101263.16;5003646;28;101570;-79
2021/09/21 09:00:07;;;;;;;14.98;12.68;;;;;;;12.80;73.49;101262.84;5002398;28;97976;-78
2021/09/21 09:02:33;;;;;;;13.40;12.00;;;;;;;12.82;73.18;101261.88;4999582;28;97339;-78
2021/09/21 09:05:03;;;;;;;16.25;12.15;;;;;;;12.84;74.07;101253.94;4977614;28;100299;-79
2021/09/21 09:07:47;;;;;;;13.35;11.95;;;;;;;13.03;73.63;101259.53;5029704;28;97345;-79
2021/09/21 09:10:13;;;;;;;13.35;11.98;;;;;;;13.17;73.23;101256.50;5010196;28;96664;-79
2021/09/21 09:12:38;;;;;;;15.75;13.05;;;;;;;13.27;72.26;101260.63;4987591;28;97018;-79
2021/09/21 09:15:19;;;;;;;17.65;13.82;;;;;;;13.36;72.55;101255.06;4981618;28;97896;-79
2021/09/21 09:17:56;;;;;;;14.00;12.60;;;;;;;13.46;72.66;101255.66;4989171;28;102278;-79
2021/09/21 09:20:44;;;;;;;16.65;13.40;;;;;;;13.60;71.61;101256.06;4983050;28;96773;-79
2021/09/21 09:23:11;;;;;;;15.80;14.13;;;;;;;13.74;71.58;101253.00;4978248;28;97603;-79
2021/09/21 09:25:44;;;;;;;14.98;13.43;;;;;;;13.81;71.49;101255.38;4988349;28;100527;-79
2021/09/21 09:28:18;;;;;;;15.20;13.52;;;;;;;13.89;71.64;101252.50;5010517;28;97534;-79
2021/09/21 09:30:43;;;;;;;26.67;16.38;;;;;;;13.98;71.77;101251.31;4984302;28;96707;-79
2021/09/21 09:33:09;;;;;;;109.00;42.80;;;;;;;13.93;71.14;101246.22;4977106;28;97027;-79
2021/09/21 09:35:43;;;;;;;28.67;18.17;;;;;;;13.90;71.13;101242.78;4989309;28;101150;-80
2021/09/21 09:38:14;;;;;;;34.10;18.55;;;;;;;13.98;70.70;101249.53;4974090;28;100468;-79
2021/09/21 09:40:43;;;;;;;25.40;15.55;;;;;;;13.93;70.80;101253.25;4996770;28;97144;-79
2021/09/21 09:43:09;;;;;;;28.70;21.30;;;;;;;13.92;71.10;101256.81;4984993;28;96650;-79
2021/09/21 09:45:40;;;;;;;73.47;34.95;;;;;;;13.96;71.16;101245.22;4990993;28;100271;-80
2021/09/21 09:48:06;;;;;;;62.08;30.92;;;;;;;14.00;71.09;101244.22;4970650;28;100358;-79
2021/09/21 09:50:34;;;;;;;27.15;18.52;;;;;;;14.05;70.98;101239.66;5011926;28;96754;-79
2021/09/21 09:53:09;;;;;;;19.77;14.70;;;;;;;14.14;70.92;101255.19;4966090;28;96888;-79
2021/09/21 09:55:36;;;;;;;16.75;13.85;;;;;;;14.22;71.08;101254.91;4962322;28;102133;-80
2021/09/21 09:58:03;;;;;;;14.52;13.07;;;;;;;14.32;70.88;101244.91;4972641;28;100307;-79
2021/09/21 10:00:29;;;;;;;17.05;13.05;;;;;;;14.31;71.16;101241.41;4970277;28;97750;-79
2021/09/21 10:02:54;;;;;;;15.88;13.35;;;;;;;14.26;70.46;101240.69;4995065;28;96860;-79
2021/09/21 10:05:20;;;;;;;15.30;13.05;;;;;;;14.17;71.02;101230.47;4990670;28;96795;-79
2021/09/21 10:07:46;;;;;;;34.95;16.00;;;;;;;14.21;70.26;101232.06;4968843;28;101300;-78
2021/09/21 10:10:12;;;;;;;56.28;21.40;;;;;;;14.32;69.76;101231.69;4988882;28;98723;-79
2021/09/21 10:12:38;;;;;;;47.20;18.73;;;;;;;14.50;69.73;101238.97;4985452;28;96707;-79
2021/09/21 10:15:08;;;;;;;21.73;14.15;;;;;;;14.83;68.97;101233.38;5000746;28;97932;-78
2021/09/21 10:17:35;;;;;;;14.20;12.73;;;;;;;15.06;68.36;101237.81;4982434;28;101266;-79
2021/09/21 10:20:02;;;;;;;14.85;13.25;;;;;;;15.27;67.98;101234.38;4978979;28;97258;-78
2021/09/21 10:22:29;;;;;;;16.00;13.23;;;;;;;15.32;68.18;101226.22;4977688;28;97357;-79
2021/09/21 10:25:03;;;;;;;16.00;13.70;;;;;;;15.55;67.22;101226.16;4963603;28;100905;-78
2021/09/21 10:27:34;;;;;;;13.65;12.38;;;;;;;15.53;66.88;101221.84;4996376;28;98365;-79
2021/09/21 10:30:03;;;;;;;15.63;13.15;;;;;;;15.40;67.14;101226.78;4954168;28;96780;-79
2021/09/21 10:32:28;;;;;;;13.27;11.88;;;;;;;15.59;66.26;101232.19;4990207;28;96900;-79
2021/09/21 10:34:56;;;;;;;15.23;12.27;;;;;;;15.88;65.71;101222.22;4980623;28;97309;-79
2021/09/21 10:37:23;;;;;;;13.70;12.30;;;;;;;16.16;64.93;101219.28;4966138;28;101448;-79
2021/09/21 10:40:02;;;;;;;13.38;12.05;;;;;;;16.62;63.91;101214.63;4974596;28;96978;-79
2021/09/21 10:42:28;;;;;;;12.60;11.30;;;;;;;16.95;62.67;101214.88;4983172;28;98334;-80
2021/09/21 10:44:58;;;;;;;13.77;12.50;;;;;;;17.16;62.49;101211.25;4979579;28;98110;-82
2021/09/21 10:47:36;;;;;;;13.00;11.85;;;;;;;17.35;61.88;101208.56;4963526;28;98172;-81
2021/09/21 10:50:14;;;;;;;11.85;10.48;;;;;;;17.40;61.01;101200.38;4971645;28;96857;-81
2021/09/21 10:52:40;;;;;;;11.50;10.45;;;;;;;17.22;61.31;101204.78;4973510;28;98764;-75
2021/09/21 10:55:17;;;;;;;10.02;9.10;;;;;;;17.22;60.86;101204.78;4987531;28;97922;-75
2021/09/21 10:57:46;;;;;;;10.38;9.38;;;;;;;17.01;60.95;101209.28;4987867;28;101033;-75
2021/09/21 11:00:19;;;;;;;10.68;9.68;;;;;;;16.97;60.87;101205.94;4984168;28;97028;-74
2021/09/21 11:02:51;;;;;;;14.73;9.63;;;;;;;17.24;60.52;101205.56;4986615;28;96722;-74
2021/09/21 11:05:19;;;;;;;14.95;10.15;;;;;;;17.30;61.25;101212.34;4974012;28;101255;-75
2021/09/21 11:07:50;;;;;;;11.18;10.15;;;;;;;17.25;60.62;101222.31;4973678;28;100875;-74
2021/09/21 11:10:17;;;;;;;10.23;9.23;;;;;;;17.17;60.56;101220.91;4989598;28;96826;-74
2021/09/21 11:12:51;;;;;;;11.10;10.00;;;;;;;16.86;60.46;101210.88;4987075;28;96954;-75
2021/09/21 11:15:18;;;;;;;11.25;9.27;;;;;;;16.73;61.14;101215.00;4973386;28;98446;-76
2021/09/21 11:17:44;;;;;;;11.35;10.20;;;;;;;16.71;61.25;101214.19;4981592;28;99069;-76
2021/09/21 11:20:09;;;;;;;10.48;9.38;;;;;;;16.72;61.52;101194.69;4980065;28;97831;-76
2021/09/21 11:22:40;;;;;;;15.27;10.05;;;;;;;16.93;60.93;101214.13;4992085;28;96641;-76
2021/09/21 11:25:12;;;;;;;8.98;8.18;;;;;;;16.89;60.60;101212.50;4981972;28;97401;-76
2021/09/21 11:27:39;;;;;;;10.63;9.52;;;;;;;16.72;60.89;101205.31;4982987;28;101374;-76
2021/09/21 11:30:05;;;;;;;10.98;8.80;;;;;;;16.67;61.65;101212.63;4969114;28;96883;-76
2021/09/21 11:32:31;;;;;;;11.23;10.05;;;;;;;16.59;61.77;101202.34;4972863;28;96867;-76
2021/09/21 11:35:05;;;;;;;9.90;8.95;;;;;;;16.45;62.00;101205.63;4967336;28;101070;-78
2021/09/21 11:37:31;;;;;;;10.15;9.10;;;;;;;16.33;62.16;101205.31;4975086;28;98385;-79